sensor_id;sensor_type;location;lat;lon;timestamp;P1;durP1;ratioP1;P2;durP2;ratioP2
5499;SDS011;2772;42.700;23.304;2023-05-07T00:02:23;24.27;;;12.33;;
5499;SDS011;2772;42.700;23.304;2023-05-07T00:04:51;20.20;;;11.70;;
5499;SDS011;2772;42.700;23.304;2023-05-07T00:07:18;17.13;;;11.90;;
5499;SDS011;2772;42.700;23.304;2023-05-07T00:09:45;18.10;;;11.80;;
5499;SDS011;2772;42.700;23.304;2023-05-07T00:12:11;15.90;;;11.87;;
5499;SDS011;2772;42.700;23.304;2023-05-07T00:14:38;18.03;;;10.40;;
5499;SDS011;2772;42.700;23.304;2023-05-07T00:17:05;14.53;;;10.87;;
5499;SDS011;2772;42.700;23.304;2023-05-07T00:19:32;17.20;;;11.00;;
5499;SDS011;2772;42.700;23.304;2023-05-07T00:22:00;15.23;;;10.67;;
5499;SDS011;2772;42.700;23.304;2023-05-07T00:24:27;14.93;;;10.60;;
5499;SDS011;2772;42.700;23.304;2023-05-07T00:26:53;16.27;;;11.20;;
5499;SDS011;2772;42.700;23.304;2023-05-07T00:29:20;15.30;;;10.50;;
5499;SDS011;2772;42.700;23.304;2023-05-07T00:31:48;17.57;;;11.10;;
5499;SDS011;2772;42.700;23.304;2023-05-07T00:34:15;18.20;;;11.73;;
5499;SDS011;2772;42.700;23.304;2023-05-07T00:36:42;19.20;;;11.50;;
5499;SDS011;2772;42.700;23.304;2023-05-07T00:39:10;21.30;;;10.77;;
5499;SDS011;2772;42.700;23.304;2023-05-07T00:41:37;17.80;;;10.57;;
5499;SDS011;2772;42.700;23.304;2023-05-07T00:44:03;15.53;;;11.47;;
5499;SDS011;2772;42.700;23.304;2023-05-07T00:46:30;18.03;;;11.47;;
5499;SDS011;2772;42.700;23.304;2023-05-07T00:48:58;16.07;;;11.17;;
5499;SDS011;2772;42.700;23.304;2023-05-07T00:51:26;16.50;;;11.13;;
5499;SDS011;2772;42.700;23.304;2023-05-07T00:53:53;15.67;;;10.80;;
5499;SDS011;2772;42.700;23.304;2023-05-07T00:56:21;18.30;;;10.87;;
5499;SDS011;2772;42.700;23.304;2023-05-07T00:58:48;14.60;;;10.50;;
5499;SDS011;2772;42.700;23.304;2023-05-07T01:01:15;15.90;;;11.20;;
5499;SDS011;2772;42.700;23.304;2023-05-07T01:03:42;16.97;;;11.30;;
5499;SDS011;2772;42.700;23.304;2023-05-07T01:06:08;16.90;;;11.60;;
5499;SDS011;2772;42.700;23.304;2023-05-07T01:08:37;15.73;;;11.40;;
5499;SDS011;2772;42.700;23.304;2023-05-07T01:11:05;14.77;;;11.10;;
5499;SDS011;2772;42.700;23.304;2023-05-07T01:13:34;15.63;;;10.73;;
5499;SDS011;2772;42.700;23.304;2023-05-07T01:16:02;17.27;;;10.67;;
5499;SDS011;2772;42.700;23.304;2023-05-07T01:18:30;16.23;;;11.70;;
5499;SDS011;2772;42.700;23.304;2023-05-07T01:20:57;19.77;;;11.40;;
5499;SDS011;2772;42.700;23.304;2023-05-07T01:23:26;16.83;;;12.10;;
5499;SDS011;2772;42.700;23.304;2023-05-07T01:25:54;14.93;;;11.23;;
5499;SDS011;2772;42.700;23.304;2023-05-07T01:28:21;20.30;;;11.50;;
5499;SDS011;2772;42.700;23.304;2023-05-07T01:30:49;12.67;;;10.30;;
5499;SDS011;2772;42.700;23.304;2023-05-07T01:33:19;17.43;;;11.87;;
5499;SDS011;2772;42.700;23.304;2023-05-07T01:35:52;19.60;;;11.87;;
5499;SDS011;2772;42.700;23.304;2023-05-07T01:38:20;18.90;;;12.40;;
5499;SDS011;2772;42.700;23.304;2023-05-07T01:40:50;13.40;;;11.00;;
5499;SDS011;2772;42.700;23.304;2023-05-07T01:43:17;17.50;;;11.70;;
5499;SDS011;2772;42.700;23.304;2023-05-07T01:45:43;14.37;;;10.57;;
5499;SDS011;2772;42.700;23.304;2023-05-07T01:48:11;17.57;;;12.30;;
5499;SDS011;2772;42.700;23.304;2023-05-07T01:50:40;18.07;;;12.00;;
5499;SDS011;2772;42.700;23.304;2023-05-07T01:53:08;15.40;;;10.97;;
5499;SDS011;2772;42.700;23.304;2023-05-07T01:55:34;14.93;;;10.60;;
5499;SDS011;2772;42.700;23.304;2023-05-07T01:58:03;12.10;;;8.77;;
5499;SDS011;2772;42.700;23.304;2023-05-07T02:00:30;13.73;;;9.07;;
5499;SDS011;2772;42.700;23.304;2023-05-07T02:02:57;12.40;;;8.73;;
5499;SDS011;2772;42.700;23.304;2023-05-07T02:05:24;13.37;;;8.80;;
5499;SDS011;2772;42.700;23.304;2023-05-07T02:07:51;11.93;;;8.70;;
5499;SDS011;2772;42.700;23.304;2023-05-07T02:10:17;11.10;;;8.80;;
5499;SDS011;2772;42.700;23.304;2023-05-07T02:12:44;11.20;;;8.50;;
5499;SDS011;2772;42.700;23.304;2023-05-07T02:15:12;10.13;;;8.10;;
5499;SDS011;2772;42.700;23.304;2023-05-07T02:17:39;14.87;;;8.40;;
5499;SDS011;2772;42.700;23.304;2023-05-07T02:20:25;14.77;;;8.27;;
5499;SDS011;2772;42.700;23.304;2023-05-07T02:22:52;11.40;;;8.17;;
5499;SDS011;2772;42.700;23.304;2023-05-07T02:25:18;13.37;;;8.53;;
5499;SDS011;2772;42.700;23.304;2023-05-07T02:27:45;11.30;;;8.43;;
5499;SDS011;2772;42.700;23.304;2023-05-07T02:30:13;14.37;;;9.03;;
5499;SDS011;2772;42.700;23.304;2023-05-07T02:32:40;12.13;;;8.53;;
5499;SDS011;2772;42.700;23.304;2023-05-07T02:35:07;10.57;;;8.53;;
5499;SDS011;2772;42.700;23.304;2023-05-07T02:37:34;12.23;;;8.93;;
5499;SDS011;2772;42.700;23.304;2023-05-07T02:40:01;23.73;;;10.10;;
5499;SDS011;2772;42.700;23.304;2023-05-07T02:42:29;14.10;;;10.27;;
5499;SDS011;2772;42.700;23.304;2023-05-07T02:44:56;18.73;;;10.83;;
5499;SDS011;2772;42.700;23.304;2023-05-07T02:47:24;17.83;;;11.50;;
5499;SDS011;2772;42.700;23.304;2023-05-07T02:49:52;15.97;;;11.07;;
5499;SDS011;2772;42.700;23.304;2023-05-07T02:52:18;17.60;;;10.87;;
5499;SDS011;2772;42.700;23.304;2023-05-07T02:54:45;17.40;;;9.90;;
5499;SDS011;2772;42.700;23.304;2023-05-07T02:57:12;15.90;;;10.80;;
5499;SDS011;2772;42.700;23.304;2023-05-07T02:59:39;16.47;;;10.43;;
5499;SDS011;2772;42.700;23.304;2023-05-07T03:02:05;20.83;;;11.87;;
5499;SDS011;2772;42.700;23.304;2023-05-07T03:04:33;16.47;;;11.13;;
5499;SDS011;2772;42.700;23.304;2023-05-07T03:07:00;16.53;;;10.33;;
5499;SDS011;2772;42.700;23.304;2023-05-07T03:09:27;13.37;;;9.90;;
5499;SDS011;2772;42.700;23.304;2023-05-07T03:11:54;15.17;;;9.30;;
5499;SDS011;2772;42.700;23.304;2023-05-07T03:14:20;17.20;;;10.87;;
5499;SDS011;2772;42.700;23.304;2023-05-07T03:16:47;17.93;;;10.97;;
5499;SDS011;2772;42.700;23.304;2023-05-07T03:19:15;13.77;;;10.47;;
5499;SDS011;2772;42.700;23.304;2023-05-07T03:21:43;15.90;;;10.30;;
5499;SDS011;2772;42.700;23.304;2023-05-07T03:24:10;13.33;;;9.87;;
5499;SDS011;2772;42.700;23.304;2023-05-07T03:26:36;19.53;;;10.90;;
5499;SDS011;2772;42.700;23.304;2023-05-07T03:29:03;11.63;;;9.23;;
5499;SDS011;2772;42.700;23.304;2023-05-07T03:31:30;13.07;;;9.93;;
5499;SDS011;2772;42.700;23.304;2023-05-07T03:33:57;12.60;;;9.57;;
5499;SDS011;2772;42.700;23.304;2023-05-07T03:36:24;12.40;;;9.90;;
5499;SDS011;2772;42.700;23.304;2023-05-07T03:38:53;14.63;;;9.70;;
5499;SDS011;2772;42.700;23.304;2023-05-07T03:41:19;14.23;;;9.53;;
5499;SDS011;2772;42.700;23.304;2023-05-07T03:43:46;14.63;;;11.00;;
5499;SDS011;2772;42.700;23.304;2023-05-07T03:46:13;17.37;;;10.73;;
5499;SDS011;2772;42.700;23.304;2023-05-07T03:48:40;12.70;;;10.37;;
5499;SDS011;2772;42.700;23.304;2023-05-07T03:51:06;15.27;;;10.20;;
5499;SDS011;2772;42.700;23.304;2023-05-07T03:53:33;18.20;;;10.40;;
5499;SDS011;2772;42.700;23.304;2023-05-07T03:56:01;15.90;;;10.83;;
5499;SDS011;2772;42.700;23.304;2023-05-07T03:58:28;13.83;;;10.13;;
5499;SDS011;2772;42.700;23.304;2023-05-07T04:00:55;14.03;;;10.07;;
5499;SDS011;2772;42.700;23.304;2023-05-07T04:03:21;14.23;;;10.27;;
5499;SDS011;2772;42.700;23.304;2023-05-07T04:05:48;12.27;;;10.27;;
5499;SDS011;2772;42.700;23.304;2023-05-07T04:08:15;15.50;;;10.80;;
5499;SDS011;2772;42.700;23.304;2023-05-07T04:10:41;12.33;;;9.47;;
5499;SDS011;2772;42.700;23.304;2023-05-07T04:13:09;24.17;;;12.20;;
5499;SDS011;2772;42.700;23.304;2023-05-07T04:15:36;17.43;;;11.10;;
5499;SDS011;2772;42.700;23.304;2023-05-07T04:18:03;15.20;;;11.00;;
5499;SDS011;2772;42.700;23.304;2023-05-07T04:20:29;13.13;;;10.80;;
5499;SDS011;2772;42.700;23.304;2023-05-07T04:22:56;16.33;;;11.20;;
5499;SDS011;2772;42.700;23.304;2023-05-07T04:25:23;12.93;;;10.23;;
5499;SDS011;2772;42.700;23.304;2023-05-07T04:27:51;18.57;;;11.40;;
5499;SDS011;2772;42.700;23.304;2023-05-07T04:30:19;15.00;;;9.90;;
5499;SDS011;2772;42.700;23.304;2023-05-07T04:32:46;16.60;;;10.10;;
5499;SDS011;2772;42.700;23.304;2023-05-07T04:35:13;22.47;;;12.70;;
5499;SDS011;2772;42.700;23.304;2023-05-07T04:37:39;14.20;;;10.50;;
5499;SDS011;2772;42.700;23.304;2023-05-07T04:40:07;12.63;;;9.50;;
5499;SDS011;2772;42.700;23.304;2023-05-07T04:42:35;18.33;;;12.03;;
5499;SDS011;2772;42.700;23.304;2023-05-07T04:45:01;20.23;;;12.13;;
5499;SDS011;2772;42.700;23.304;2023-05-07T04:47:31;17.67;;;9.10;;
5499;SDS011;2772;42.700;23.304;2023-05-07T04:49:58;13.53;;;10.50;;
5499;SDS011;2772;42.700;23.304;2023-05-07T04:52:25;16.30;;;11.30;;
5499;SDS011;2772;42.700;23.304;2023-05-07T04:54:51;12.10;;;9.70;;
5499;SDS011;2772;42.700;23.304;2023-05-07T04:57:18;19.30;;;10.77;;
5499;SDS011;2772;42.700;23.304;2023-05-07T04:59:45;21.67;;;12.30;;
5499;SDS011;2772;42.700;23.304;2023-05-07T05:02:11;14.43;;;10.93;;
5499;SDS011;2772;42.700;23.304;2023-05-07T05:04:39;20.73;;;12.43;;
5499;SDS011;2772;42.700;23.304;2023-05-07T05:07:06;20.40;;;11.77;;
5499;SDS011;2772;42.700;23.304;2023-05-07T05:09:33;15.47;;;10.40;;
5499;SDS011;2772;42.700;23.304;2023-05-07T05:12:00;17.80;;;11.30;;
5499;SDS011;2772;42.700;23.304;2023-05-07T05:14:26;18.13;;;10.30;;
5499;SDS011;2772;42.700;23.304;2023-05-07T05:16:53;14.47;;;11.17;;
5499;SDS011;2772;42.700;23.304;2023-05-07T05:19:20;27.93;;;11.10;;
5499;SDS011;2772;42.700;23.304;2023-05-07T05:21:48;14.27;;;10.67;;
5499;SDS011;2772;42.700;23.304;2023-05-07T05:24:15;19.83;;;11.83;;
5499;SDS011;2772;42.700;23.304;2023-05-07T05:26:41;15.80;;;11.30;;
5499;SDS011;2772;42.700;23.304;2023-05-07T05:29:08;22.73;;;10.97;;
5499;SDS011;2772;42.700;23.304;2023-05-07T05:31:35;13.73;;;11.10;;
5499;SDS011;2772;42.700;23.304;2023-05-07T05:34:02;14.77;;;11.67;;
5499;SDS011;2772;42.700;23.304;2023-05-07T05:36:28;18.43;;;11.73;;
5499;SDS011;2772;42.700;23.304;2023-05-07T05:38:57;15.00;;;11.40;;
5499;SDS011;2772;42.700;23.304;2023-05-07T05:41:23;20.97;;;12.40;;
5499;SDS011;2772;42.700;23.304;2023-05-07T05:43:50;22.27;;;12.97;;
5499;SDS011;2772;42.700;23.304;2023-05-07T05:46:17;20.10;;;12.17;;
5499;SDS011;2772;42.700;23.304;2023-05-07T05:48:43;20.70;;;12.77;;
5499;SDS011;2772;42.700;23.304;2023-05-07T05:51:10;19.67;;;12.83;;
5499;SDS011;2772;42.700;23.304;2023-05-07T05:53:37;13.37;;;11.30;;
5499;SDS011;2772;42.700;23.304;2023-05-07T05:56:05;19.53;;;12.90;;
5499;SDS011;2772;42.700;23.304;2023-05-07T05:58:32;17.10;;;12.93;;
5499;SDS011;2772;42.700;23.304;2023-05-07T06:00:59;20.67;;;11.70;;
5499;SDS011;2772;42.700;23.304;2023-05-07T06:03:27;16.93;;;12.60;;
5499;SDS011;2772;42.700;23.304;2023-05-07T06:05:54;16.40;;;12.30;;
5499;SDS011;2772;42.700;23.304;2023-05-07T06:08:21;21.07;;;14.10;;
5499;SDS011;2772;42.700;23.304;2023-05-07T06:10:47;18.20;;;13.00;;
5499;SDS011;2772;42.700;23.304;2023-05-07T06:13:15;19.17;;;12.90;;
5499;SDS011;2772;42.700;23.304;2023-05-07T06:15:42;21.80;;;13.40;;
5499;SDS011;2772;42.700;23.304;2023-05-07T06:18:09;20.43;;;12.53;;
5499;SDS011;2772;42.700;23.304;2023-05-07T06:20:35;20.70;;;13.17;;
5499;SDS011;2772;42.700;23.304;2023-05-07T06:23:02;21.63;;;12.40;;
5499;SDS011;2772;42.700;23.304;2023-05-07T06:25:29;18.50;;;13.10;;
5499;SDS011;2772;42.700;23.304;2023-05-07T06:27:55;23.37;;;13.07;;
5499;SDS011;2772;42.700;23.304;2023-05-07T06:30:23;16.80;;;12.80;;
5499;SDS011;2772;42.700;23.304;2023-05-07T06:32:51;16.00;;;12.53;;
5499;SDS011;2772;42.700;23.304;2023-05-07T06:35:18;17.33;;;12.40;;
5499;SDS011;2772;42.700;23.304;2023-05-07T06:37:45;17.93;;;12.60;;
5499;SDS011;2772;42.700;23.304;2023-05-07T06:40:12;22.20;;;13.80;;
5499;SDS011;2772;42.700;23.304;2023-05-07T06:42:38;21.50;;;13.97;;
5499;SDS011;2772;42.700;23.304;2023-05-07T06:45:06;21.00;;;13.63;;
5499;SDS011;2772;42.700;23.304;2023-05-07T06:47:35;18.10;;;13.10;;
5499;SDS011;2772;42.700;23.304;2023-05-07T06:50:01;19.37;;;13.50;;
5499;SDS011;2772;42.700;23.304;2023-05-07T06:52:28;14.60;;;12.17;;
5499;SDS011;2772;42.700;23.304;2023-05-07T06:54:55;16.63;;;12.27;;
5499;SDS011;2772;42.700;23.304;2023-05-07T06:57:21;15.80;;;11.70;;
5499;SDS011;2772;42.700;23.304;2023-05-07T06:59:48;20.93;;;12.80;;
5499;SDS011;2772;42.700;23.304;2023-05-07T07:02:15;16.20;;;12.87;;
5499;SDS011;2772;42.700;23.304;2023-05-07T07:04:43;17.70;;;13.33;;
5499;SDS011;2772;42.700;23.304;2023-05-07T07:07:10;19.60;;;13.63;;
5499;SDS011;2772;42.700;23.304;2023-05-07T07:09:36;25.20;;;12.83;;
5499;SDS011;2772;42.700;23.304;2023-05-07T07:12:03;17.40;;;13.33;;
5499;SDS011;2772;42.700;23.304;2023-05-07T07:14:30;17.63;;;12.90;;
5499;SDS011;2772;42.700;23.304;2023-05-07T07:16:57;19.83;;;12.47;;
5499;SDS011;2772;42.700;23.304;2023-05-07T07:19:23;17.43;;;12.30;;
5499;SDS011;2772;42.700;23.304;2023-05-07T07:21:51;18.67;;;12.77;;
5499;SDS011;2772;42.700;23.304;2023-05-07T07:24:18;28.17;;;17.90;;
5499;SDS011;2772;42.700;23.304;2023-05-07T07:26:46;19.73;;;13.53;;
5499;SDS011;2772;42.700;23.304;2023-05-07T07:29:12;18.40;;;12.60;;
5499;SDS011;2772;42.700;23.304;2023-05-07T07:31:40;21.73;;;13.60;;
5499;SDS011;2772;42.700;23.304;2023-05-07T07:34:07;20.20;;;10.90;;
5499;SDS011;2772;42.700;23.304;2023-05-07T07:36:34;16.33;;;11.13;;
5499;SDS011;2772;42.700;23.304;2023-05-07T07:39:02;15.53;;;10.70;;
5499;SDS011;2772;42.700;23.304;2023-05-07T07:41:29;14.13;;;10.70;;
5499;SDS011;2772;42.700;23.304;2023-05-07T07:43:55;14.63;;;11.37;;
5499;SDS011;2772;42.700;23.304;2023-05-07T07:46:22;18.73;;;11.57;;
5499;SDS011;2772;42.700;23.304;2023-05-07T07:48:49;21.80;;;15.13;;
5499;SDS011;2772;42.700;23.304;2023-05-07T07:51:15;14.23;;;11.47;;
5499;SDS011;2772;42.700;23.304;2023-05-07T07:53:42;16.70;;;11.23;;
5499;SDS011;2772;42.700;23.304;2023-05-07T07:56:10;14.93;;;10.70;;
5499;SDS011;2772;42.700;23.304;2023-05-07T07:58:37;18.50;;;11.47;;
5499;SDS011;2772;42.700;23.304;2023-05-07T08:01:04;18.93;;;10.77;;
5499;SDS011;2772;42.700;23.304;2023-05-07T08:03:30;18.27;;;11.67;;
5499;SDS011;2772;42.700;23.304;2023-05-07T08:05:58;17.70;;;10.87;;
5499;SDS011;2772;42.700;23.304;2023-05-07T08:08:25;16.33;;;12.00;;
5499;SDS011;2772;42.700;23.304;2023-05-07T08:10:51;16.00;;;11.10;;
5499;SDS011;2772;42.700;23.304;2023-05-07T08:13:19;16.10;;;11.50;;
5499;SDS011;2772;42.700;23.304;2023-05-07T08:15:46;19.93;;;10.67;;
5499;SDS011;2772;42.700;23.304;2023-05-07T08:18:13;17.67;;;10.80;;
5499;SDS011;2772;42.700;23.304;2023-05-07T08:20:40;16.30;;;10.23;;
5499;SDS011;2772;42.700;23.304;2023-05-07T08:23:07;22.30;;;11.80;;
5499;SDS011;2772;42.700;23.304;2023-05-07T08:25:34;18.57;;;11.80;;
5499;SDS011;2772;42.700;23.304;2023-05-07T08:28:01;25.60;;;11.90;;
5499;SDS011;2772;42.700;23.304;2023-05-07T08:30:29;25.07;;;11.40;;
5499;SDS011;2772;42.700;23.304;2023-05-07T08:32:56;18.70;;;10.27;;
5499;SDS011;2772;42.700;23.304;2023-05-07T08:35:23;18.53;;;10.93;;
5499;SDS011;2772;42.700;23.304;2023-05-07T08:37:50;15.60;;;10.20;;
5499;SDS011;2772;42.700;23.304;2023-05-07T08:40:17;12.90;;;10.30;;
5499;SDS011;2772;42.700;23.304;2023-05-07T08:42:44;10.83;;;8.47;;
5499;SDS011;2772;42.700;23.304;2023-05-07T08:45:12;13.00;;;9.77;;
5499;SDS011;2772;42.700;23.304;2023-05-07T08:47:42;13.33;;;9.43;;
5499;SDS011;2772;42.700;23.304;2023-05-07T08:50:11;12.10;;;9.20;;
5499;SDS011;2772;42.700;23.304;2023-05-07T08:52:38;16.40;;;9.60;;
5499;SDS011;2772;42.700;23.304;2023-05-07T08:55:06;12.73;;;9.40;;
5499;SDS011;2772;42.700;23.304;2023-05-07T08:57:33;14.07;;;9.13;;
5499;SDS011;2772;42.700;23.304;2023-05-07T09:00:00;9.63;;;8.40;;
5499;SDS011;2772;42.700;23.304;2023-05-07T09:02:27;11.87;;;8.57;;
5499;SDS011;2772;42.700;23.304;2023-05-07T09:04:55;14.80;;;8.67;;
5499;SDS011;2772;42.700;23.304;2023-05-07T09:07:22;10.03;;;8.60;;
5499;SDS011;2772;42.700;23.304;2023-05-07T09:09:48;10.10;;;8.27;;
5499;SDS011;2772;42.700;23.304;2023-05-07T09:12:17;15.30;;;9.00;;
5499;SDS011;2772;42.700;23.304;2023-05-07T09:14:45;10.90;;;7.73;;
5499;SDS011;2772;42.700;23.304;2023-05-07T09:17:12;8.83;;;7.93;;
5499;SDS011;2772;42.700;23.304;2023-05-07T09:19:38;12.20;;;7.37;;
5499;SDS011;2772;42.700;23.304;2023-05-07T09:22:06;10.87;;;7.47;;
5499;SDS011;2772;42.700;23.304;2023-05-07T09:24:33;8.20;;;7.50;;
5499;SDS011;2772;42.700;23.304;2023-05-07T09:27:02;9.17;;;7.47;;
5499;SDS011;2772;42.700;23.304;2023-05-07T09:29:30;9.53;;;7.27;;
5499;SDS011;2772;42.700;23.304;2023-05-07T09:32:00;9.83;;;7.70;;
5499;SDS011;2772;42.700;23.304;2023-05-07T09:34:27;6.57;;;5.97;;
5499;SDS011;2772;42.700;23.304;2023-05-07T09:36:54;7.80;;;6.20;;
5499;SDS011;2772;42.700;23.304;2023-05-07T09:39:23;7.50;;;6.77;;
5499;SDS011;2772;42.700;23.304;2023-05-07T09:41:50;7.23;;;6.50;;
5499;SDS011;2772;42.700;23.304;2023-05-07T09:44:19;8.37;;;6.13;;
5499;SDS011;2772;42.700;23.304;2023-05-07T09:46:47;8.90;;;7.77;;
5499;SDS011;2772;42.700;23.304;2023-05-07T09:49:21;9.60;;;7.50;;
5499;SDS011;2772;42.700;23.304;2023-05-07T09:51:50;9.87;;;7.50;;
5499;SDS011;2772;42.700;23.304;2023-05-07T09:54:18;10.23;;;6.83;;
5499;SDS011;2772;42.700;23.304;2023-05-07T09:56:46;8.00;;;6.83;;
5499;SDS011;2772;42.700;23.304;2023-05-07T09:59:15;6.23;;;5.37;;
5499;SDS011;2772;42.700;23.304;2023-05-07T10:01:43;6.43;;;4.97;;
5499;SDS011;2772;42.700;23.304;2023-05-07T10:04:11;7.07;;;4.50;;
5499;SDS011;2772;42.700;23.304;2023-05-07T10:06:38;5.30;;;4.80;;
5499;SDS011;2772;42.700;23.304;2023-05-07T10:09:05;4.87;;;4.57;;
5499;SDS011;2772;42.700;23.304;2023-05-07T10:11:32;6.30;;;5.50;;
5499;SDS011;2772;42.700;23.304;2023-05-07T10:14:04;4.57;;;4.20;;
5499;SDS011;2772;42.700;23.304;2023-05-07T10:16:32;4.40;;;4.00;;
5499;SDS011;2772;42.700;23.304;2023-05-07T10:19:02;4.97;;;4.47;;
5499;SDS011;2772;42.700;23.304;2023-05-07T10:21:30;5.03;;;4.63;;
5499;SDS011;2772;42.700;23.304;2023-05-07T10:23:58;8.57;;;5.23;;
5499;SDS011;2772;42.700;23.304;2023-05-07T10:26:27;5.60;;;4.57;;
5499;SDS011;2772;42.700;23.304;2023-05-07T10:28:58;6.07;;;4.80;;
5499;SDS011;2772;42.700;23.304;2023-05-07T10:34:19;5.53;;;5.03;;
5499;SDS011;2772;42.700;23.304;2023-05-07T10:36:50;4.20;;;4.00;;
5499;SDS011;2772;42.700;23.304;2023-05-07T10:39:18;6.77;;;5.33;;
5499;SDS011;2772;42.700;23.304;2023-05-07T10:41:46;5.80;;;5.20;;
5499;SDS011;2772;42.700;23.304;2023-05-07T10:44:24;5.50;;;5.10;;
5499;SDS011;2772;42.700;23.304;2023-05-07T10:49:36;10.97;;;9.30;;
5499;SDS011;2772;42.700;23.304;2023-05-07T10:52:24;8.10;;;7.40;;
5499;SDS011;2772;42.700;23.304;2023-05-07T10:55:19;7.23;;;6.53;;
5499;SDS011;2772;42.700;23.304;2023-05-07T10:57:50;8.33;;;6.07;;
5499;SDS011;2772;42.700;23.304;2023-05-07T11:03:10;8.43;;;6.20;;
5499;SDS011;2772;42.700;23.304;2023-05-07T11:05:39;7.53;;;5.80;;
5499;SDS011;2772;42.700;23.304;2023-05-07T11:08:07;19.73;;;10.20;;
5499;SDS011;2772;42.700;23.304;2023-05-07T11:10:50;5.50;;;5.00;;
5499;SDS011;2772;42.700;23.304;2023-05-07T11:13:18;9.20;;;5.77;;
5499;SDS011;2772;42.700;23.304;2023-05-07T11:16:03;9.67;;;5.10;;
5499;SDS011;2772;42.700;23.304;2023-05-07T11:24:00;5.20;;;4.70;;
5499;SDS011;2772;42.700;23.304;2023-05-07T11:26:28;7.43;;;4.57;;
5499;SDS011;2772;42.700;23.304;2023-05-07T11:28:56;5.60;;;5.00;;
5499;SDS011;2772;42.700;23.304;2023-05-07T11:31:26;5.77;;;5.27;;
5499;SDS011;2772;42.700;23.304;2023-05-07T11:33:56;4.40;;;4.00;;
5499;SDS011;2772;42.700;23.304;2023-05-07T11:36:24;6.00;;;4.20;;
5499;SDS011;2772;42.700;23.304;2023-05-07T11:38:52;4.90;;;4.50;;
5499;SDS011;2772;42.700;23.304;2023-05-07T11:41:18;6.67;;;4.33;;
5499;SDS011;2772;42.700;23.304;2023-05-07T11:43:54;6.70;;;4.10;;
5499;SDS011;2772;42.700;23.304;2023-05-07T11:46:25;7.93;;;4.77;;
5499;SDS011;2772;42.700;23.304;2023-05-07T11:48:53;6.80;;;5.23;;
5499;SDS011;2772;42.700;23.304;2023-05-07T11:51:22;5.10;;;4.70;;
5499;SDS011;2772;42.700;23.304;2023-05-07T11:53:52;5.40;;;4.97;;
5499;SDS011;2772;42.700;23.304;2023-05-07T11:56:19;6.83;;;5.07;;
5499;SDS011;2772;42.700;23.304;2023-05-07T11:58:47;10.90;;;5.60;;
5499;SDS011;2772;42.700;23.304;2023-05-07T12:01:14;5.53;;;4.87;;
5499;SDS011;2772;42.700;23.304;2023-05-07T12:03:43;3.50;;;3.20;;
5499;SDS011;2772;42.700;23.304;2023-05-07T12:06:12;4.03;;;3.13;;
5499;SDS011;2772;42.700;23.304;2023-05-07T12:08:42;3.93;;;2.90;;
5499;SDS011;2772;42.700;23.304;2023-05-07T12:11:11;3.93;;;2.90;;
5499;SDS011;2772;42.700;23.304;2023-05-07T12:13:41;3.00;;;2.80;;
5499;SDS011;2772;42.700;23.304;2023-05-07T12:16:08;3.83;;;3.30;;
5499;SDS011;2772;42.700;23.304;2023-05-07T12:18:35;2.70;;;2.60;;
5499;SDS011;2772;42.700;23.304;2023-05-07T12:21:04;4.10;;;3.40;;
5499;SDS011;2772;42.700;23.304;2023-05-07T12:23:32;3.40;;;3.20;;
5499;SDS011;2772;42.700;23.304;2023-05-07T12:26:01;4.00;;;3.80;;
5499;SDS011;2772;42.700;23.304;2023-05-07T12:28:28;3.87;;;3.57;;
5499;SDS011;2772;42.700;23.304;2023-05-07T12:30:56;4.23;;;3.83;;
5499;SDS011;2772;42.700;23.304;2023-05-07T12:33:24;3.50;;;3.30;;
5499;SDS011;2772;42.700;23.304;2023-05-07T12:35:56;4.87;;;3.27;;
5499;SDS011;2772;42.700;23.304;2023-05-07T12:38:22;3.77;;;3.47;;
5499;SDS011;2772;42.700;23.304;2023-05-07T12:40:50;4.20;;;3.80;;
5499;SDS011;2772;42.700;23.304;2023-05-07T12:43:21;3.97;;;3.70;;
5499;SDS011;2772;42.700;23.304;2023-05-07T12:45:50;4.30;;;3.90;;
5499;SDS011;2772;42.700;23.304;2023-05-07T12:48:19;4.03;;;3.73;;
5499;SDS011;2772;42.700;23.304;2023-05-07T12:50:48;4.07;;;3.77;;
5499;SDS011;2772;42.700;23.304;2023-05-07T12:53:15;4.80;;;4.30;;
5499;SDS011;2772;42.700;23.304;2023-05-07T12:55:43;4.87;;;4.30;;
5499;SDS011;2772;42.700;23.304;2023-05-07T12:58:22;6.57;;;3.73;;
5499;SDS011;2772;42.700;23.304;2023-05-07T13:00:51;3.67;;;3.47;;
5499;SDS011;2772;42.700;23.304;2023-05-07T13:03:22;4.10;;;3.80;;
5499;SDS011;2772;42.700;23.304;2023-05-07T13:05:50;4.37;;;3.97;;
5499;SDS011;2772;42.700;23.304;2023-05-07T13:08:24;4.00;;;3.67;;
5499;SDS011;2772;42.700;23.304;2023-05-07T13:10:52;4.40;;;4.00;;
5499;SDS011;2772;42.700;23.304;2023-05-07T13:13:18;4.17;;;3.73;;
5499;SDS011;2772;42.700;23.304;2023-05-07T13:15:47;4.53;;;4.20;;
5499;SDS011;2772;42.700;23.304;2023-05-07T13:18:14;4.40;;;4.00;;
5499;SDS011;2772;42.700;23.304;2023-05-07T13:20:41;5.93;;;5.03;;
5499;SDS011;2772;42.700;23.304;2023-05-07T13:23:08;4.67;;;4.27;;
5499;SDS011;2772;42.700;23.304;2023-05-07T13:25:34;4.80;;;4.40;;
5499;SDS011;2772;42.700;23.304;2023-05-07T13:28:01;4.40;;;4.10;;
5499;SDS011;2772;42.700;23.304;2023-05-07T13:30:30;4.30;;;4.00;;
5499;SDS011;2772;42.700;23.304;2023-05-07T13:32:57;4.63;;;4.23;;
5499;SDS011;2772;42.700;23.304;2023-05-07T13:35:24;4.30;;;4.00;;
5499;SDS011;2772;42.700;23.304;2023-05-07T13:37:50;5.67;;;3.90;;
5499;SDS011;2772;42.700;23.304;2023-05-07T13:40:20;3.93;;;3.43;;
5499;SDS011;2772;42.700;23.304;2023-05-07T13:42:47;3.90;;;3.13;;
5499;SDS011;2772;42.700;23.304;2023-05-07T13:45:14;5.30;;;3.63;;
5499;SDS011;2772;42.700;23.304;2023-05-07T13:47:42;5.97;;;4.93;;
5499;SDS011;2772;42.700;23.304;2023-05-07T13:50:09;4.17;;;3.87;;
5499;SDS011;2772;42.700;23.304;2023-05-07T13:52:40;6.30;;;3.70;;
5499;SDS011;2772;42.700;23.304;2023-05-07T13:55:08;4.13;;;3.83;;
5499;SDS011;2772;42.700;23.304;2023-05-07T13:57:36;4.43;;;4.10;;
5499;SDS011;2772;42.700;23.304;2023-05-07T14:00:03;9.47;;;4.20;;
5499;SDS011;2772;42.700;23.304;2023-05-07T14:02:31;5.30;;;4.20;;
5499;SDS011;2772;42.700;23.304;2023-05-07T14:04:59;4.30;;;3.87;;
5499;SDS011;2772;42.700;23.304;2023-05-07T14:07:26;6.60;;;4.30;;
5499;SDS011;2772;42.700;23.304;2023-05-07T14:09:53;4.33;;;4.03;;
5499;SDS011;2772;42.700;23.304;2023-05-07T14:12:20;4.33;;;3.93;;
5499;SDS011;2772;42.700;23.304;2023-05-07T14:14:47;3.63;;;3.43;;
5499;SDS011;2772;42.700;23.304;2023-05-07T14:17:15;6.03;;;4.07;;
5499;SDS011;2772;42.700;23.304;2023-05-07T14:19:42;4.37;;;4.07;;
5499;SDS011;2772;42.700;23.304;2023-05-07T14:22:10;5.50;;;4.50;;
5499;SDS011;2772;42.700;23.304;2023-05-07T14:24:37;13.90;;;4.83;;
5499;SDS011;2772;42.700;23.304;2023-05-07T14:27:04;5.80;;;4.63;;
5499;SDS011;2772;42.700;23.304;2023-05-07T14:29:31;6.50;;;4.97;;
5499;SDS011;2772;42.700;23.304;2023-05-07T14:32:00;4.50;;;3.70;;
5499;SDS011;2772;42.700;23.304;2023-05-07T14:34:27;3.80;;;3.60;;
5499;SDS011;2772;42.700;23.304;2023-05-07T14:36:53;4.40;;;4.10;;
5499;SDS011;2772;42.700;23.304;2023-05-07T14:39:22;4.47;;;4.17;;
5499;SDS011;2772;42.700;23.304;2023-05-07T14:41:48;3.97;;;3.70;;
5499;SDS011;2772;42.700;23.304;2023-05-07T14:44:15;4.70;;;4.30;;
5499;SDS011;2772;42.700;23.304;2023-05-07T14:46:42;8.20;;;4.87;;
5499;SDS011;2772;42.700;23.304;2023-05-07T14:49:08;5.80;;;4.30;;
5499;SDS011;2772;42.700;23.304;2023-05-07T14:51:41;6.20;;;4.27;;
5499;SDS011;2772;42.700;23.304;2023-05-07T14:54:08;5.87;;;4.97;;
5499;SDS011;2772;42.700;23.304;2023-05-07T14:56:36;4.90;;;4.60;;
5499;SDS011;2772;42.700;23.304;2023-05-07T14:59:03;5.37;;;4.60;;
5499;SDS011;2772;42.700;23.304;2023-05-07T15:01:30;7.50;;;4.07;;
5499;SDS011;2772;42.700;23.304;2023-05-07T15:03:57;5.03;;;4.57;;